createdAt,value
2017-12-24T00:01:33.587Z,81.10
2017-12-24T00:04:01.120Z,80.90
2017-12-24T00:06:28.727Z,80.80
2017-12-24T00:08:56.251Z,81.10
2017-12-24T00:11:23.749Z,81.80
2017-12-24T00:13:51.286Z,81.50
2017-12-24T00:16:18.820Z,80.90
2017-12-24T00:18:46.310Z,80.70
2017-12-24T00:21:13.849Z,81.20
2017-12-24T00:23:41.346Z,81.00
2017-12-24T00:26:08.878Z,81.50
2017-12-24T00:28:36.374Z,81.30
2017-12-24T00:31:03.946Z,81.70
2017-12-24T00:33:32.394Z,81.60
2017-12-24T00:35:59.926Z,81.50
2017-12-24T00:38:28.179Z,81.00
2017-12-24T00:40:55.667Z,80.90
2017-12-24T00:43:23.975Z,80.90
2017-12-24T00:45:51.460Z,80.80
2017-12-24T00:48:18.970Z,80.40
2017-12-24T00:50:47.266Z,80.70
2017-12-24T00:53:14.826Z,80.70
2017-12-24T00:55:42.385Z,80.60
2017-12-24T00:58:09.859Z,81.00
2017-12-24T01:00:37.469Z,81.40
2017-12-24T01:03:05.016Z,81.80
2017-12-24T01:05:32.532Z,82.70
2017-12-24T01:08:00.794Z,82.90
2017-12-24T01:10:28.330Z,82.80
2017-12-24T01:12:55.815Z,82.80
2017-12-24T01:15:23.371Z,82.90
2017-12-24T01:17:50.858Z,83.50
2017-12-24T01:20:18.358Z,83.70
2017-12-24T01:22:45.862Z,83.40
2017-12-24T01:25:13.477Z,83.70
2017-12-24T01:27:40.967Z,84.10
2017-12-24T01:30:08.463Z,83.80
2017-12-24T01:32:36.011Z,84.00
2017-12-24T01:35:03.502Z,84.00
2017-12-24T01:37:31.011Z,83.70
2017-12-24T01:39:58.537Z,82.70
2017-12-24T01:42:27.299Z,83.60
2017-12-24T01:44:54.827Z,83.50
2017-12-24T01:47:23.063Z,83.20
2017-12-24T01:49:50.581Z,83.40
2017-12-24T01:52:18.106Z,84.20
2017-12-24T01:54:46.394Z,84.00
2017-12-24T01:57:14.755Z,84.30
2017-12-24T01:59:42.283Z,84.30
2017-12-24T02:02:09.804Z,83.90
2017-12-24T02:04:37.346Z,83.80
2017-12-24T02:07:04.906Z,83.90
2017-12-24T02:09:32.402Z,84.10
2017-12-24T02:11:59.918Z,84.50
2017-12-24T02:14:27.432Z,83.20
2017-12-24T02:16:54.971Z,83.40
2017-12-24T02:19:23.230Z,84.20
2017-12-24T02:21:50.730Z,84.10
2017-12-24T02:24:18.254Z,84.40
2017-12-24T02:26:45.750Z,83.70
2017-12-24T02:29:14.064Z,84.20
2017-12-24T02:31:41.554Z,84.10
2017-12-24T02:34:09.057Z,84.10
2017-12-24T02:36:37.363Z,84.00
2017-12-24T02:39:04.853Z,84.00
2017-12-24T02:41:32.350Z,83.80
2017-12-24T02:43:59.870Z,84.20
2017-12-24T02:46:27.388Z,82.70
2017-12-24T02:48:55.779Z,82.90
2017-12-24T02:51:24.110Z,82.80
2017-12-24T02:53:51.605Z,82.70
2017-12-24T02:56:19.875Z,83.10
2017-12-24T02:58:47.416Z,82.70
2017-12-24T03:01:14.915Z,82.60
2017-12-24T03:03:42.435Z,83.10
2017-12-24T03:06:09.981Z,83.80
2017-12-24T03:08:37.514Z,83.60
2017-12-24T03:11:05.779Z,83.50
2017-12-24T03:13:33.312Z,83.40
2017-12-24T03:16:00.808Z,84.70
2017-12-24T03:18:28.360Z,82.70
2017-12-24T03:20:55.891Z,83.60
2017-12-24T03:23:23.396Z,83.60
2017-12-24T03:25:50.912Z,84.20
2017-12-24T03:28:18.465Z,83.20
2017-12-24T03:30:45.974Z,83.20
2017-12-24T03:33:13.501Z,83.10
2017-12-24T03:35:41.069Z,83.30
2017-12-24T03:38:08.645Z,82.80
2017-12-24T03:40:36.218Z,82.50
2017-12-24T03:43:03.794Z,83.10
2017-12-24T03:45:31.299Z,82.80
2017-12-24T03:47:58.787Z,83.40
2017-12-24T03:50:26.313Z,83.70
2017-12-24T03:52:54.573Z,83.40
2017-12-24T03:55:22.094Z,83.30
2017-12-24T03:57:49.618Z,83.60
2017-12-24T04:00:17.933Z,82.90
2017-12-24T04:02:45.474Z,82.80
2017-12-24T04:05:13.730Z,82.90
2017-12-24T04:07:41.246Z,82.90
2017-12-24T04:10:08.782Z,82.60
2017-12-24T04:12:37.038Z,82.00
2017-12-24T04:15:04.566Z,82.00
2017-12-24T04:17:32.052Z,82.00
2017-12-24T04:19:59.539Z,81.90
2017-12-24T04:22:27.837Z,81.10
2017-12-24T04:24:55.362Z,81.10
2017-12-24T04:27:22.909Z,81.40
2017-12-24T04:29:50.397Z,81.70
2017-12-24T04:32:17.944Z,81.30
2017-12-24T04:34:45.474Z,81.60
2017-12-24T04:37:13.005Z,81.20
2017-12-24T04:39:41.291Z,82.00
2017-12-24T04:42:09.555Z,81.40
2017-12-24T04:44:37.192Z,81.30
2017-12-24T04:47:04.730Z,81.80
2017-12-24T04:49:32.294Z,81.70
2017-12-24T04:51:59.789Z,82.10
2017-12-24T04:54:27.330Z,82.30
2017-12-24T04:56:54.987Z,82.50
2017-12-24T04:59:22.478Z,82.30
2017-12-24T05:01:50.013Z,82.50
2017-12-24T05:04:17.512Z,82.50
2017-12-24T05:06:45.018Z,83.20
2017-12-24T05:09:13.318Z,83.40
2017-12-24T05:11:40.853Z,83.40
2017-12-24T05:14:09.656Z,83.80
2017-12-24T05:16:37.117Z,83.70
2017-12-24T05:19:05.451Z,83.10
2017-12-24T05:21:32.940Z,83.00
2017-12-24T05:24:00.476Z,82.80
2017-12-24T05:26:27.972Z,82.70
2017-12-24T05:28:56.241Z,82.90
2017-12-24T05:31:23.811Z,82.90
2017-12-24T05:33:51.298Z,82.50
2017-12-24T05:36:18.797Z,82.10
2017-12-24T05:38:46.311Z,81.50
2017-12-24T05:41:14.619Z,81.00
2017-12-24T05:43:42.115Z,81.00
2017-12-24T05:46:09.606Z,80.70
2017-12-24T05:48:37.142Z,80.90
2017-12-24T05:51:04.632Z,80.10
2017-12-24T05:53:32.182Z,79.60
2017-12-24T05:55:59.671Z,79.60
2017-12-24T05:58:27.934Z,79.80
2017-12-24T06:00:55.458Z,79.80
2017-12-24T06:03:23.009Z,79.60
2017-12-24T06:05:50.538Z,80.30
2017-12-24T06:08:18.090Z,80.10
2017-12-24T06:10:45.616Z,80.10
2017-12-24T06:13:13.121Z,79.60
2017-12-24T06:15:40.637Z,79.10
2017-12-24T06:18:08.165Z,79.60
2017-12-24T06:20:37.012Z,80.00
2017-12-24T06:23:04.540Z,80.00
2017-12-24T06:25:32.082Z,80.60
2017-12-24T06:28:00.391Z,80.80
2017-12-24T06:30:27.907Z,80.80
2017-12-24T06:32:55.440Z,80.40
2017-12-24T06:35:22.934Z,80.60
2017-12-24T06:37:50.459Z,80.50
2017-12-24T06:40:17.994Z,80.80
2017-12-24T06:42:45.498Z,81.00
2017-12-24T06:45:13.023Z,81.30
2017-12-24T06:47:41.299Z,81.20
2017-12-24T06:50:09.604Z,81.60
2017-12-24T06:52:37.113Z,81.50
2017-12-24T06:55:04.606Z,81.40
2017-12-24T06:57:32.918Z,80.80
2017-12-24T07:00:00.408Z,80.80
2017-12-24T07:02:27.938Z,80.60
2017-12-24T07:04:55.436Z,80.40
2017-12-24T07:07:22.937Z,80.90
2017-12-24T07:09:51.266Z,80.20
2017-12-24T07:12:18.759Z,80.10
2017-12-24T07:14:46.278Z,79.70
2017-12-24T07:17:13.815Z,80.30
2017-12-24T07:19:42.125Z,81.20
2017-12-24T07:22:09.630Z,81.10
2017-12-24T07:24:37.179Z,80.70
2017-12-24T07:27:04.702Z,80.90
2017-12-24T07:29:32.222Z,81.00
2017-12-24T07:31:59.730Z,81.00
2017-12-24T07:34:27.278Z,80.10
2017-12-24T07:36:55.540Z,80.30
2017-12-24T07:39:23.029Z,80.20
2017-12-24T07:41:50.559Z,79.90
2017-12-24T07:44:18.062Z,79.90
2017-12-24T07:46:45.571Z,80.40
2017-12-24T07:49:13.111Z,81.00
2017-12-24T07:51:40.602Z,80.40
2017-12-24T07:54:08.106Z,80.70
2017-12-24T07:56:35.626Z,80.20
2017-12-24T07:59:03.151Z,80.60
2017-12-24T08:01:30.670Z,81.20
2017-12-24T08:03:58.156Z,81.00
2017-12-24T08:06:25.697Z,81.40
2017-12-24T08:08:53.195Z,81.20
2017-12-24T08:11:20.722Z,80.90
2017-12-24T08:13:48.230Z,81.20
2017-12-24T08:16:15.774Z,80.80
2017-12-24T08:18:43.266Z,80.60
2017-12-24T08:21:10.802Z,80.30
2017-12-24T08:23:38.297Z,81.00
2017-12-24T08:26:05.832Z,80.50
2017-12-24T08:28:33.358Z,80.40
2017-12-24T08:31:00.895Z,80.30
2017-12-24T08:33:28.383Z,80.50
2017-12-24T08:35:55.882Z,79.80
2017-12-24T08:38:23.430Z,79.80
2017-12-24T08:40:51.693Z,80.40
2017-12-24T08:43:19.191Z,80.40
2017-12-24T08:45:46.714Z,80.40
2017-12-24T08:48:14.200Z,80.20
2017-12-24T08:50:42.511Z,80.90
2017-12-24T08:53:10.057Z,80.90
2017-12-24T08:55:38.325Z,80.80
2017-12-24T08:58:06.594Z,79.60
2017-12-24T09:00:34.119Z,79.50
2017-12-24T09:03:01.606Z,79.40
2017-12-24T09:05:29.187Z,79.90
2017-12-24T09:07:56.666Z,79.50
2017-12-24T09:10:24.914Z,78.70
2017-12-24T09:12:52.445Z,78.70
2017-12-24T09:15:19.931Z,78.80
2017-12-24T09:17:47.475Z,78.70
2017-12-24T09:20:14.977Z,78.50
2017-12-24T09:22:42.501Z,78.10
2017-12-24T09:25:10.027Z,79.20
2017-12-24T09:27:38.287Z,77.70
2017-12-24T09:30:05.851Z,77.60
2017-12-24T09:32:33.350Z,78.30
2017-12-24T09:35:00.839Z,79.30
2017-12-24T09:37:28.385Z,79.20
2017-12-24T09:39:55.879Z,79.50
2017-12-24T09:42:23.374Z,79.90
2017-12-24T09:44:50.894Z,79.00
2017-12-24T09:47:18.399Z,78.80
2017-12-24T09:49:47.322Z,78.80
2017-12-24T09:52:14.807Z,77.90
2017-12-24T09:54:42.310Z,77.90
2017-12-24T09:57:09.830Z,78.90
2017-12-24T09:59:37.318Z,78.60
2017-12-24T10:02:04.854Z,78.70
2017-12-24T10:04:32.351Z,78.20
2017-12-24T10:06:59.878Z,78.40
2017-12-24T10:09:27.422Z,79.10
2017-12-24T10:11:54.967Z,79.00
2017-12-24T10:14:22.497Z,78.80
2017-12-24T10:16:50.039Z,78.90
2017-12-24T10:19:17.521Z,78.40
2017-12-24T10:21:45.014Z,79.00
2017-12-24T10:24:12.548Z,78.70
2017-12-24T10:26:40.040Z,78.90
2017-12-24T10:29:07.571Z,79.10
2017-12-24T10:31:35.067Z,78.70
2017-12-24T10:34:02.599Z,77.90
2017-12-24T10:36:30.126Z,77.50
2017-12-24T10:38:57.618Z,78.20
2017-12-24T10:41:25.160Z,77.30
2017-12-24T10:43:52.830Z,78.00
2017-12-24T10:46:20.378Z,77.60
2017-12-24T10:48:47.875Z,77.50
2017-12-24T10:51:15.390Z,77.90
2017-12-24T10:53:43.694Z,77.80
2017-12-24T10:56:11.216Z,77.70
2017-12-24T10:58:38.707Z,77.90
2017-12-24T11:01:06.965Z,78.50
2017-12-24T11:03:34.486Z,78.50
2017-12-24T11:06:01.989Z,79.00
2017-12-24T11:08:29.527Z,78.80
2017-12-24T11:10:57.020Z,78.50
2017-12-24T11:13:24.523Z,77.90
2017-12-24T11:15:52.038Z,78.40
2017-12-24T11:18:19.586Z,77.60
2017-12-24T11:20:47.078Z,77.60
2017-12-24T11:23:14.570Z,77.50
2017-12-24T11:25:42.093Z,77.00
2017-12-24T11:28:09.602Z,76.50
2017-12-24T11:30:37.155Z,76.60
2017-12-24T11:33:04.651Z,75.90
2017-12-24T11:35:32.175Z,76.30
2017-12-24T11:38:00.465Z,76.80
2017-12-24T11:40:28.011Z,76.70
2017-12-24T11:42:56.253Z,76.10
2017-12-24T11:45:23.792Z,76.10
2017-12-24T11:47:51.307Z,76.40
2017-12-24T11:50:18.853Z,76.20
2017-12-24T11:52:46.344Z,76.80
2017-12-24T11:55:14.641Z,77.60
2017-12-24T11:57:42.214Z,77.50
2017-12-24T12:00:09.754Z,76.50
2017-12-24T12:02:38.006Z,76.50
2017-12-24T12:05:05.503Z,76.40
2017-12-24T12:07:33.790Z,76.60
2017-12-24T12:10:02.042Z,77.00
2017-12-24T12:12:29.589Z,76.90
2017-12-24T12:14:57.126Z,76.70
2017-12-24T12:17:24.683Z,77.20
2017-12-24T12:19:52.167Z,77.10
2017-12-24T12:22:19.694Z,76.10
2017-12-24T12:24:47.183Z,75.20
2017-12-24T12:27:14.724Z,74.90
2017-12-24T12:29:42.263Z,73.80
2017-12-24T12:32:10.523Z,75.60
2017-12-24T12:34:38.051Z,75.60
2017-12-24T12:37:05.538Z,74.70
2017-12-24T12:39:33.035Z,75.00
2017-12-24T12:42:01.544Z,76.40
2017-12-24T12:44:29.067Z,76.40
2017-12-24T12:46:56.559Z,76.80
2017-12-24T12:49:24.824Z,76.50
2017-12-24T12:51:52.348Z,76.50
2017-12-24T12:54:19.839Z,76.50
2017-12-24T12:56:47.359Z,75.90
2017-12-24T12:59:14.907Z,76.40
2017-12-24T13:01:42.407Z,76.70
2017-12-24T13:04:09.910Z,76.40
2017-12-24T13:06:38.192Z,76.40
2017-12-24T13:09:06.465Z,76.10
2017-12-24T13:11:34.791Z,76.50
2017-12-24T13:14:02.296Z,75.60
2017-12-24T13:16:29.787Z,75.30
2017-12-24T13:18:58.111Z,75.20
2017-12-24T13:21:25.606Z,75.20
2017-12-24T13:23:53.931Z,75.80
2017-12-24T13:26:21.436Z,75.70
2017-12-24T13:28:48.933Z,76.40
2017-12-24T13:31:17.220Z,75.30
2017-12-24T13:33:45.478Z,74.80
2017-12-24T13:36:13.042Z,74.80
2017-12-24T13:38:40.555Z,75.30
2017-12-24T13:43:35.967Z,75.10
2017-12-24T13:46:04.223Z,76.30
2017-12-24T13:48:31.763Z,76.20
2017-12-24T13:50:59.262Z,77.70
2017-12-24T13:53:27.564Z,76.40
2017-12-24T13:55:55.054Z,76.40
2017-12-24T13:58:22.550Z,76.20
2017-12-24T14:00:50.059Z,76.40
2017-12-24T14:03:17.597Z,76.50
2017-12-24T14:05:45.859Z,77.10
2017-12-24T14:08:13.378Z,77.00
2017-12-24T14:10:40.878Z,77.70
2017-12-24T14:13:08.407Z,77.70
2017-12-24T14:15:35.939Z,77.50
2017-12-24T14:18:04.202Z,77.60
2017-12-24T14:20:31.690Z,77.60
2017-12-24T14:22:59.241Z,77.40
2017-12-24T14:25:27.502Z,76.40
2017-12-24T14:27:54.989Z,76.40
2017-12-24T14:30:23.286Z,77.90
2017-12-24T14:32:50.786Z,77.80
2017-12-24T14:35:18.273Z,78.10
2017-12-24T14:37:45.811Z,78.20
2017-12-24T14:40:13.302Z,79.20
2017-12-24T14:42:40.821Z,79.30
2017-12-24T14:45:08.318Z,78.70
2017-12-24T14:47:35.856Z,78.30
2017-12-24T14:50:03.415Z,78.40
2017-12-24T14:52:30.914Z,78.00
2017-12-24T14:54:58.459Z,77.90
2017-12-24T14:57:25.987Z,77.50
2017-12-24T14:59:53.522Z,76.80
2017-12-24T15:02:21.799Z,77.30
2017-12-24T15:04:50.058Z,77.90
2017-12-24T15:07:17.622Z,77.80
2017-12-24T15:09:45.164Z,78.30
2017-12-24T15:12:12.665Z,78.10
2017-12-24T15:14:40.186Z,78.00
2017-12-24T15:17:07.680Z,78.60
2017-12-24T15:19:35.207Z,78.30
2017-12-24T15:22:02.699Z,77.90
2017-12-24T15:24:30.242Z,77.70
2017-12-24T15:27:01.617Z,77.90
2017-12-24T15:29:29.110Z,77.50
2017-12-24T15:31:57.378Z,77.20
2017-12-24T15:34:25.643Z,78.20
2017-12-24T15:36:53.260Z,78.10
2017-12-24T15:39:20.744Z,78.30
2017-12-24T15:41:48.253Z,78.40
2017-12-24T15:44:15.918Z,78.40
2017-12-24T15:46:44.186Z,78.70
2017-12-24T15:49:11.701Z,78.60
2017-12-24T15:51:39.197Z,78.90
2017-12-24T15:54:06.742Z,78.50
2017-12-24T15:56:34.237Z,78.30
2017-12-24T15:59:01.787Z,78.10
2017-12-24T16:01:29.306Z,78.60
2017-12-24T16:06:29.779Z,78.40
2017-12-24T16:08:57.274Z,79.00
2017-12-24T16:11:24.770Z,79.30
2017-12-24T16:13:53.078Z,79.30
2017-12-24T16:16:20.565Z,79.20
2017-12-24T16:18:48.104Z,79.00
2017-12-24T16:21:15.622Z,78.70
2017-12-24T16:23:43.169Z,78.90
2017-12-24T16:26:10.654Z,79.20
2017-12-24T16:28:38.156Z,79.20
2017-12-24T16:31:05.703Z,79.30
2017-12-24T16:33:33.995Z,79.90
2017-12-24T16:36:01.499Z,79.80
2017-12-24T16:38:29.038Z,80.10
2017-12-24T16:40:56.529Z,80.40
2017-12-24T16:43:24.074Z,80.10
2017-12-24T16:45:51.618Z,80.10
2017-12-24T16:48:19.125Z,80.40
2017-12-24T16:50:46.618Z,80.20
2017-12-24T16:53:14.897Z,79.30
2017-12-24T16:55:43.177Z,79.60
2017-12-24T16:58:11.466Z,79.70
2017-12-24T17:00:39.781Z,79.50
2017-12-24T17:03:07.267Z,79.50
2017-12-24T17:05:34.789Z,79.30
2017-12-24T17:08:02.291Z,79.20
2017-12-24T17:10:29.814Z,79.50
2017-12-24T17:12:57.336Z,79.20
2017-12-24T17:15:24.858Z,79.00
2017-12-24T17:17:52.371Z,79.20
2017-12-24T17:20:19.945Z,79.50
2017-12-24T17:22:47.440Z,79.30
2017-12-24T17:25:14.948Z,79.20
2017-12-24T17:27:42.503Z,79.00
2017-12-24T17:30:10.009Z,79.20
2017-12-24T17:32:38.279Z,78.80
2017-12-24T17:35:06.568Z,78.70
2017-12-24T17:37:34.870Z,78.80
2017-12-24T17:40:02.379Z,78.70
2017-12-24T17:42:29.910Z,79.10
2017-12-24T17:44:57.402Z,79.50
2017-12-24T17:47:24.891Z,79.50
2017-12-24T17:49:53.189Z,80.00
2017-12-24T17:52:21.474Z,79.90
2017-12-24T17:54:48.983Z,79.80
2017-12-24T17:57:16.529Z,79.20
2017-12-24T17:59:44.014Z,79.30
2017-12-24T18:02:11.543Z,79.70
2017-12-24T18:04:39.083Z,79.50
2017-12-24T18:07:07.343Z,80.00
2017-12-24T18:09:34.890Z,79.90
2017-12-24T18:12:02.387Z,79.90
2017-12-24T18:14:30.647Z,80.50
2017-12-24T18:16:58.175Z,80.50
2017-12-24T18:19:25.668Z,80.30
2017-12-24T18:21:53.204Z,80.10
2017-12-24T18:24:20.708Z,79.60
2017-12-24T18:26:48.197Z,79.70
2017-12-24T18:29:15.755Z,79.70
2017-12-24T18:31:44.585Z,80.00
2017-12-24T18:34:12.135Z,80.00
2017-12-24T18:36:39.666Z,80.00
2017-12-24T18:39:07.918Z,80.30
2017-12-24T18:41:35.473Z,80.20
2017-12-24T18:44:03.003Z,80.30
2017-12-24T18:46:30.981Z,80.30
2017-12-24T18:48:59.415Z,79.70
2017-12-24T18:51:27.000Z,79.70
2017-12-24T18:53:55.263Z,78.20
2017-12-24T18:56:22.794Z,78.10
2017-12-24T18:58:50.275Z,78.50
2017-12-24T19:01:17.810Z,78.00
2017-12-24T19:03:45.290Z,78.00
2017-12-24T19:06:12.790Z,78.10
2017-12-24T19:08:41.095Z,78.00
2017-12-24T19:11:08.626Z,77.90
2017-12-24T19:13:36.146Z,78.10
2017-12-24T19:16:03.646Z,78.20
2017-12-24T19:18:31.190Z,78.40
2017-12-24T19:20:58.677Z,78.50
2017-12-24T19:23:26.168Z,77.80
2017-12-24T19:25:54.453Z,78.00
2017-12-24T19:28:21.974Z,77.90
2017-12-24T19:30:49.470Z,78.30
2017-12-24T19:33:17.785Z,79.20
2017-12-24T19:35:45.275Z,79.00
2017-12-24T19:38:12.940Z,79.50
2017-12-24T19:40:40.431Z,79.00
2017-12-24T19:43:08.697Z,78.90
2017-12-24T19:45:36.243Z,78.80
2017-12-24T19:48:03.739Z,78.40
2017-12-24T19:50:32.018Z,78.40
2017-12-24T19:52:59.544Z,78.40
2017-12-24T19:55:27.075Z,79.10
2017-12-24T19:57:54.605Z,78.80
2017-12-24T20:00:22.156Z,79.50
2017-12-24T20:02:49.663Z,79.10
2017-12-24T20:05:17.171Z,79.80
2017-12-24T20:07:44.672Z,79.30
2017-12-24T20:10:12.986Z,80.60
2017-12-24T20:12:40.472Z,80.50
2017-12-24T20:15:07.970Z,80.90
2017-12-24T20:17:36.274Z,81.50
2017-12-24T20:20:03.773Z,81.30
2017-12-24T20:22:31.322Z,81.30
2017-12-24T20:24:58.818Z,81.80
2017-12-24T20:27:26.364Z,81.90
2017-12-24T20:29:53.877Z,82.20
2017-12-24T20:32:22.147Z,82.70
2017-12-24T20:34:49.675Z,83.50
2017-12-24T20:37:17.214Z,82.50
2017-12-24T20:39:44.700Z,82.50
2017-12-24T20:42:12.233Z,82.60
2017-12-24T20:44:39.720Z,82.50
2017-12-24T20:47:07.244Z,81.90
2017-12-24T20:49:35.494Z,81.60
2017-12-24T20:52:02.987Z,81.60
2017-12-24T20:54:31.310Z,81.50
2017-12-24T20:56:58.811Z,81.40
2017-12-24T20:59:26.330Z,81.30
2017-12-24T21:01:53.821Z,82.30
2017-12-24T21:04:21.361Z,81.50
2017-12-24T21:06:48.887Z,81.20
2017-12-24T21:09:17.142Z,81.20
2017-12-24T21:11:44.675Z,81.20
2017-12-24T21:14:12.193Z,81.20
2017-12-24T21:16:40.446Z,80.60
2017-12-24T21:19:07.990Z,80.50
2017-12-24T21:21:35.520Z,80.60
2017-12-24T21:24:03.022Z,80.50
2017-12-24T21:26:30.550Z,80.60
2017-12-24T21:28:58.038Z,80.60
2017-12-24T21:31:25.599Z,80.00
2017-12-24T21:33:53.081Z,81.00
2017-12-24T21:36:20.582Z,81.50
2017-12-24T21:38:48.113Z,81.60
2017-12-24T21:41:15.621Z,81.40
2017-12-24T21:43:43.147Z,81.70
2017-12-24T21:46:10.643Z,81.80
2017-12-24T21:48:38.157Z,82.00
2017-12-24T21:51:05.709Z,81.90
2017-12-24T21:53:33.249Z,81.00
2017-12-24T21:56:00.758Z,81.10
2017-12-24T21:58:28.253Z,81.20
2017-12-24T22:00:55.817Z,81.60
2017-12-24T22:03:24.122Z,81.60
2017-12-24T22:05:51.610Z,81.60
2017-12-24T22:08:19.158Z,80.70
2017-12-24T22:10:46.661Z,80.60
2017-12-24T22:13:14.221Z,81.30
2017-12-24T22:15:41.759Z,81.00
2017-12-24T22:18:09.250Z,80.90
2017-12-24T22:20:36.800Z,80.80
2017-12-24T22:23:04.290Z,80.80
2017-12-24T22:25:32.616Z,80.40
2017-12-24T22:28:01.462Z,80.50
2017-12-24T22:30:29.002Z,80.40
2017-12-24T22:32:56.540Z,80.20
2017-12-24T22:35:24.045Z,80.60
2017-12-24T22:37:51.538Z,80.70
2017-12-24T22:40:19.077Z,80.90
2017-12-24T22:42:46.578Z,80.90
2017-12-24T22:45:14.066Z,81.20
2017-12-24T22:47:41.624Z,81.40
2017-12-24T22:50:09.124Z,81.80
2017-12-24T22:52:36.620Z,82.10
2017-12-24T22:55:04.141Z,81.80
2017-12-24T22:57:31.667Z,81.20
2017-12-24T22:59:59.182Z,81.50
2017-12-24T23:02:26.748Z,81.30
2017-12-24T23:04:54.243Z,80.50
2017-12-24T23:07:21.768Z,80.80
2017-12-24T23:09:49.293Z,81.40
2017-12-24T23:12:16.823Z,81.60
2017-12-24T23:14:45.075Z,81.30
2017-12-24T23:17:12.570Z,81.30
2017-12-24T23:19:40.101Z,81.20
2017-12-24T23:22:07.622Z,81.10
2017-12-24T23:24:35.177Z,81.40
2017-12-24T23:27:02.685Z,81.60
2017-12-24T23:29:30.167Z,81.40
2017-12-24T23:31:58.473Z,81.20
2017-12-24T23:34:25.981Z,81.10
2017-12-24T23:36:53.504Z,81.50
2017-12-24T23:39:21.014Z,80.90
2017-12-24T23:41:48.578Z,80.60
2017-12-24T23:44:16.098Z,80.50
2017-12-24T23:46:43.618Z,81.00
2017-12-24T23:49:11.156Z,80.70
2017-12-24T23:51:38.646Z,80.50
2017-12-24T23:54:06.228Z,81.10
2017-12-24T23:56:34.492Z,81.20
2017-12-24T23:59:02.020Z,81.20
